createdAt,value
2023-05-10T00:00:45.772Z,48.69
2023-05-10T00:03:48.585Z,49.08
2023-05-10T00:06:51.359Z,49.45
2023-05-10T00:09:53.952Z,49.48
2023-05-10T00:12:56.729Z,49.44
2023-05-10T00:15:59.280Z,49.10
2023-05-10T00:19:01.930Z,49.33
2023-05-10T00:22:04.466Z,49.17
2023-05-10T00:25:08.111Z,49.51
2023-05-10T00:28:10.731Z,49.74
2023-05-10T00:31:13.405Z,49.85
2023-05-10T00:34:16.463Z,49.67
2023-05-10T00:37:19.140Z,49.40
2023-05-10T00:40:22.094Z,49.59
2023-05-10T00:43:24.664Z,49.58
2023-05-10T00:46:28.197Z,49.50
2023-05-10T00:49:31.148Z,50.00
2023-05-10T00:52:34.001Z,50.11
2023-05-10T00:55:37.145Z,50.00
2023-05-10T00:58:41.020Z,50.17
2023-05-10T01:01:47.219Z,50.03
2023-05-10T01:04:50.573Z,50.27
2023-05-10T01:07:53.776Z,50.31
2023-05-10T01:10:56.624Z,50.68
2023-05-10T01:13:59.927Z,50.54
2023-05-10T01:17:03.900Z,51.21
2023-05-10T01:20:09.354Z,50.90
2023-05-10T01:23:19.186Z,51.21
2023-05-10T01:26:35.430Z,51.18
2023-05-10T01:30:13.656Z,51.08
2023-05-10T01:34:08.879Z,51.80
2023-05-10T01:37:52.183Z,51.60
2023-05-10T01:41:20.226Z,51.77
2023-05-10T01:44:32.343Z,51.94
2023-05-10T01:47:44.627Z,51.56
2023-05-10T01:50:48.682Z,51.98
2023-05-10T01:58:10.959Z,52.92
2023-05-10T02:01:14.722Z,51.82
2023-05-10T02:04:20.326Z,52.07
2023-05-10T02:07:25.166Z,52.75
2023-05-10T02:10:29.654Z,52.50
2023-05-10T02:13:35.488Z,53.44
2023-05-10T02:16:40.037Z,53.29
2023-05-10T02:19:44.349Z,52.91
2023-05-10T02:22:50.391Z,52.70
2023-05-10T02:26:06.914Z,53.16
2023-05-10T02:29:10.922Z,53.25
2023-05-10T02:32:15.494Z,53.39
2023-05-10T02:35:18.562Z,53.63
2023-05-10T02:38:25.075Z,53.38
2023-05-10T02:41:29.229Z,53.87
2023-05-10T02:44:33.520Z,53.70
2023-05-10T02:47:36.592Z,54.17
2023-05-10T02:50:44.960Z,53.54
2023-05-10T02:53:50.622Z,54.22
2023-05-10T02:56:59.626Z,54.26
2023-05-10T03:00:03.922Z,54.39
2023-05-10T03:03:06.705Z,54.28
2023-05-10T03:06:09.331Z,54.13
2023-05-10T03:09:16.217Z,54.36
2023-05-10T03:12:26.858Z,55.03
2023-05-10T03:15:39.105Z,55.38
2023-05-10T03:19:08.636Z,55.14
2023-05-10T03:22:14.212Z,55.58
2023-05-10T03:25:18.082Z,55.12
2023-05-10T03:28:22.265Z,54.86
2023-05-10T03:31:25.246Z,54.94
2023-05-10T03:34:27.928Z,55.36
2023-05-10T03:37:30.492Z,55.69
2023-05-10T03:40:33.321Z,55.52
2023-05-10T03:43:46.029Z,56.06
2023-05-10T03:46:49.031Z,56.27
2023-05-10T03:49:52.071Z,55.89
2023-05-10T03:52:55.022Z,55.80
2023-05-10T03:55:57.717Z,56.45
2023-05-10T03:59:00.482Z,55.92
2023-05-10T04:02:03.890Z,56.23
2023-05-10T04:05:07.359Z,55.96
2023-05-10T04:08:10.398Z,56.48
2023-05-10T04:11:13.823Z,55.83
2023-05-10T04:14:16.571Z,56.45
2023-05-10T04:17:19.116Z,56.58
2023-05-10T04:20:21.711Z,56.04
2023-05-10T04:23:24.369Z,56.19
2023-05-10T04:26:26.939Z,56.09
2023-05-10T04:29:29.592Z,56.29
2023-05-10T04:32:32.621Z,56.44
2023-05-10T04:35:36.353Z,56.62
2023-05-10T04:38:39.160Z,56.56
2023-05-10T04:41:41.777Z,56.49
2023-05-10T04:44:44.706Z,56.70
2023-05-10T04:47:57.606Z,56.37
2023-05-10T04:51:00.773Z,57.12
2023-05-10T04:54:06.392Z,56.82
2023-05-10T04:57:09.434Z,56.47
2023-05-10T05:00:12.594Z,56.75
2023-05-10T05:03:15.327Z,57.03
2023-05-10T05:06:21.083Z,56.86
2023-05-10T05:09:23.678Z,56.98
2023-05-10T05:12:26.335Z,56.71
2023-05-10T05:15:28.987Z,56.40
2023-05-10T05:18:31.576Z,56.42
2023-05-10T05:21:34.172Z,56.23
2023-05-10T05:24:39.170Z,56.53
2023-05-10T05:27:42.326Z,56.41
2023-05-10T05:30:44.962Z,55.98
2023-05-10T05:33:47.762Z,56.16
2023-05-10T05:36:50.335Z,56.15
2023-05-10T05:39:52.996Z,56.37
2023-05-10T05:42:55.849Z,56.03
2023-05-10T05:45:59.169Z,56.03
2023-05-10T05:49:02.521Z,55.72
2023-05-10T05:52:05.800Z,55.76
2023-05-10T05:55:08.668Z,55.80
2023-05-10T05:58:11.182Z,55.63
2023-05-10T06:01:13.795Z,55.66
2023-05-10T06:04:17.281Z,55.21
2023-05-10T06:07:19.977Z,55.47
2023-05-10T06:10:23.840Z,55.15
2023-05-10T06:13:30.125Z,55.05
2023-05-10T06:16:32.828Z,54.87
2023-05-10T06:19:35.507Z,54.76
2023-05-10T06:22:38.148Z,54.66
2023-05-10T06:25:41.338Z,54.53
2023-05-10T06:28:44.031Z,54.31
2023-05-10T06:31:46.742Z,54.28
2023-05-10T06:34:49.457Z,54.36
2023-05-10T06:37:52.571Z,53.80
2023-05-10T06:40:55.198Z,53.72
2023-05-10T06:43:57.723Z,53.85
2023-05-10T06:47:00.529Z,53.57
2023-05-10T06:50:07.135Z,53.55
2023-05-10T06:53:09.745Z,53.36
2023-05-10T06:56:12.414Z,53.08
2023-05-10T06:59:16.609Z,53.13
2023-05-10T07:02:19.747Z,53.14
2023-05-10T07:05:23.019Z,52.98
2023-05-10T07:08:25.633Z,52.76
2023-05-10T07:11:28.294Z,52.68
2023-05-10T07:14:31.026Z,52.71
2023-05-10T07:17:34.518Z,52.72
2023-05-10T07:20:37.119Z,52.82
2023-05-10T07:23:39.757Z,52.63
2023-05-10T07:26:42.283Z,52.51
2023-05-10T07:29:44.901Z,52.49
2023-05-10T07:32:47.614Z,52.47
2023-05-10T07:35:51.048Z,52.29
2023-05-10T07:38:53.815Z,52.60
2023-05-10T07:41:56.853Z,52.31
2023-05-10T07:44:59.596Z,52.02
2023-05-10T07:48:02.677Z,52.03
2023-05-10T07:51:05.701Z,51.92
2023-05-10T07:54:26.384Z,51.70
2023-05-10T07:57:28.941Z,51.20
2023-05-10T08:00:31.624Z,51.32
2023-05-10T08:03:34.338Z,50.99
2023-05-10T08:06:41.699Z,51.12
2023-05-10T08:09:44.618Z,50.94
2023-05-10T08:12:47.193Z,50.64
2023-05-10T08:15:50.030Z,50.45
2023-05-10T08:18:52.855Z,50.70
2023-05-10T08:21:56.717Z,50.76
2023-05-10T08:24:59.334Z,50.51
2023-05-10T08:28:02.150Z,49.95
2023-05-10T08:31:05.896Z,49.92
2023-05-10T08:34:08.908Z,50.03
2023-05-10T08:37:14.488Z,49.91
2023-05-10T08:40:20.578Z,49.92
2023-05-10T08:43:27.257Z,49.70
2023-05-10T08:46:32.082Z,49.20
2023-05-10T08:49:35.960Z,49.32
2023-05-10T08:52:41.427Z,49.25
2023-05-10T08:55:44.370Z,49.18
2023-05-10T08:58:47.015Z,50.13
2023-05-10T09:01:51.551Z,49.63
2023-05-10T09:04:54.291Z,49.42
2023-05-10T09:07:56.913Z,49.36
2023-05-10T09:11:02.197Z,49.45
2023-05-10T09:14:05.358Z,49.43
2023-05-10T09:17:08.291Z,49.18
2023-05-10T09:20:11.497Z,49.07
2023-05-10T09:23:14.170Z,49.13
2023-05-10T09:26:17.309Z,48.96
2023-05-10T09:29:20.115Z,48.60
2023-05-10T09:32:22.926Z,47.90
2023-05-10T09:35:29.627Z,48.29
2023-05-10T09:38:49.190Z,48.03
2023-05-10T09:41:51.791Z,48.18
2023-05-10T09:44:54.625Z,47.88
2023-05-10T09:47:58.902Z,48.02
2023-05-10T09:51:01.786Z,47.44
2023-05-10T09:54:14.620Z,47.80
2023-05-10T09:57:25.170Z,47.38
2023-05-10T10:00:28.498Z,46.90
2023-05-10T10:03:31.321Z,46.96
2023-05-10T10:06:41.246Z,46.60
2023-05-10T10:09:43.892Z,46.38
2023-05-10T10:12:46.532Z,46.40
2023-05-10T10:15:52.288Z,46.36
2023-05-10T10:18:55.498Z,45.88
2023-05-10T10:21:58.751Z,45.90
2023-05-10T10:25:01.913Z,45.51
2023-05-10T10:28:26.135Z,45.25
2023-05-10T10:31:40.436Z,44.89
2023-05-10T10:34:43.083Z,44.81
2023-05-10T10:37:47.267Z,44.81
2023-05-10T10:41:03.493Z,44.12
2023-05-10T10:44:27.478Z,44.21
2023-05-10T10:47:34.183Z,43.67
2023-05-10T10:50:46.051Z,44.50
2023-05-10T10:53:49.253Z,44.11
2023-05-10T10:57:14.807Z,43.72
2023-05-10T11:00:22.184Z,43.77
2023-05-10T11:03:25.850Z,43.41
2023-05-10T11:06:36.663Z,43.18
2023-05-10T11:09:42.716Z,42.48
2023-05-10T11:13:05.453Z,42.95
2023-05-10T11:16:12.374Z,41.67
2023-05-10T11:19:17.550Z,42.26
2023-05-10T11:22:20.112Z,41.90
2023-05-10T11:25:28.098Z,41.47
2023-05-10T11:28:30.846Z,41.69
2023-05-10T11:31:33.952Z,41.89
2023-05-10T11:34:36.552Z,40.83
2023-05-10T11:37:42.442Z,40.59
2023-05-10T11:40:45.047Z,41.02
2023-05-10T11:43:50.126Z,40.64
2023-05-10T11:46:53.152Z,40.52
2023-05-10T11:49:56.103Z,40.74
2023-05-10T11:52:59.880Z,40.65
2023-05-10T11:56:09.976Z,40.49
2023-05-10T11:59:16.237Z,39.98
2023-05-10T12:02:19.067Z,40.26
2023-05-10T12:05:21.908Z,39.53
2023-05-10T12:08:29.035Z,39.33
2023-05-10T12:11:31.537Z,39.47
2023-05-10T12:14:40.158Z,39.47
2023-05-10T12:17:45.525Z,39.92
2023-05-10T12:20:48.437Z,39.80
2023-05-10T12:23:56.604Z,38.66
2023-05-10T12:30:23.841Z,38.49
2023-05-10T12:33:26.814Z,38.10
2023-05-10T12:36:29.477Z,37.78
2023-05-10T12:39:41.181Z,37.58
2023-05-10T12:42:45.994Z,37.56
2023-05-10T12:45:49.208Z,37.54
2023-05-10T12:49:07.928Z,38.15
2023-05-10T12:52:14.126Z,37.36
2023-05-10T12:55:16.810Z,37.18
2023-05-10T12:58:34.470Z,37.47
2023-05-10T13:01:38.786Z,37.14
2023-05-10T13:04:43.075Z,36.54
2023-05-10T13:07:46.384Z,36.23
2023-05-10T13:10:49.760Z,36.53
2023-05-10T13:13:52.842Z,36.47
2023-05-10T13:16:55.636Z,36.96
2023-05-10T13:19:58.269Z,36.91
2023-05-10T13:23:01.029Z,36.84
2023-05-10T13:26:03.695Z,36.37
2023-05-10T13:29:06.384Z,37.79
2023-05-10T13:32:09.654Z,37.35
2023-05-10T13:35:12.514Z,36.72
2023-05-10T13:38:15.202Z,36.94
2023-05-10T13:41:17.952Z,36.27
2023-05-10T13:44:21.744Z,36.02
2023-05-10T13:47:24.433Z,35.41
2023-05-10T13:50:27.167Z,35.54
2023-05-10T13:53:29.940Z,35.51
2023-05-10T13:57:29.094Z,34.87
2023-05-10T14:00:41.474Z,33.55
2023-05-10T14:03:44.483Z,33.61
2023-05-10T14:06:47.629Z,33.48
2023-05-10T14:09:50.499Z,33.08
2023-05-10T14:12:53.268Z,32.69
2023-05-10T14:15:56.675Z,33.17
2023-05-10T14:18:59.376Z,32.93
2023-05-10T14:22:02.186Z,32.59
2023-05-10T14:25:05.360Z,32.97
2023-05-10T14:28:08.256Z,33.47
2023-05-10T14:31:11.103Z,34.12
2023-05-10T14:34:14.071Z,33.42
2023-05-10T14:37:17.572Z,32.99
2023-05-10T14:40:20.326Z,32.64
2023-05-10T14:43:23.092Z,32.51
2023-05-10T14:46:25.846Z,32.52
2023-05-10T14:49:28.828Z,32.85
2023-05-10T14:53:28.081Z,33.38
2023-05-10T14:56:44.882Z,32.45
2023-05-10T14:59:47.740Z,32.52
2023-05-10T15:02:51.287Z,31.45
2023-05-10T15:05:54.786Z,31.56
2023-05-10T15:08:57.474Z,32.00
2023-05-10T15:12:00.159Z,32.03
2023-05-10T15:15:03.328Z,32.00
2023-05-10T15:18:06.867Z,31.01
2023-05-10T15:21:10.094Z,31.04
2023-05-10T15:24:12.746Z,30.53
2023-05-10T15:27:15.524Z,30.66
2023-05-10T15:30:18.198Z,30.21
2023-05-10T15:33:20.843Z,29.93
2023-05-10T15:36:23.633Z,30.41
2023-05-10T15:39:26.377Z,30.05
2023-05-10T15:42:29.044Z,28.97
2023-05-10T15:45:32.214Z,28.56
2023-05-10T15:48:35.005Z,27.89
2023-05-10T15:51:58.481Z,27.59
2023-05-10T15:55:01.092Z,26.80
2023-05-10T15:58:03.699Z,25.99
2023-05-10T16:01:06.880Z,25.45
2023-05-10T16:04:33.543Z,25.49
2023-05-10T16:07:36.224Z,24.63
2023-05-10T16:10:38.904Z,25.37
2023-05-10T16:13:41.536Z,26.19
2023-05-10T16:16:44.432Z,26.86
2023-05-10T16:20:05.590Z,27.75
2023-05-10T16:23:08.468Z,28.10
2023-05-10T16:26:11.125Z,27.96
2023-05-10T16:29:13.792Z,28.55
2023-05-10T16:36:07.018Z,29.08
2023-05-10T16:39:24.730Z,29.39
2023-05-10T16:42:28.214Z,29.04
2023-05-10T16:45:32.715Z,29.90
2023-05-10T16:48:35.724Z,29.66
2023-05-10T16:51:38.351Z,29.95
2023-05-10T16:54:47.065Z,29.45
2023-05-10T16:57:50.445Z,29.41
2023-05-10T17:00:53.210Z,29.96
2023-05-10T17:03:56.082Z,30.05
2023-05-10T17:06:58.950Z,29.99
2023-05-10T17:10:01.544Z,30.25
2023-05-10T17:13:04.172Z,30.55
2023-05-10T17:16:08.220Z,30.11
2023-05-10T17:19:11.392Z,30.65
2023-05-10T17:22:14.420Z,30.56
2023-05-10T17:25:35.600Z,31.14
2023-05-10T17:28:38.182Z,31.25
2023-05-10T17:32:02.484Z,31.28
2023-05-10T17:35:06.487Z,31.22
2023-05-10T17:38:09.097Z,31.53
2023-05-10T17:41:11.653Z,31.92
2023-05-10T17:44:14.397Z,31.88
2023-05-10T17:47:36.177Z,32.21
2023-05-10T17:50:43.430Z,32.41
2023-05-10T17:53:46.275Z,32.57
2023-05-10T17:56:49.138Z,32.82
2023-05-10T17:59:51.753Z,33.15
2023-05-10T18:03:01.468Z,33.24
2023-05-10T18:06:04.593Z,33.64
2023-05-10T18:09:07.701Z,33.78
2023-05-10T18:15:52.464Z,34.51
2023-05-10T18:18:55.090Z,34.89
2023-05-10T18:21:57.767Z,35.12
2023-05-10T18:25:00.502Z,35.58
2023-05-10T18:28:03.266Z,35.70
2023-05-10T18:31:05.855Z,35.90
2023-05-10T18:34:44.923Z,36.09
2023-05-10T18:37:48.715Z,36.80
2023-05-10T18:40:51.588Z,36.77
2023-05-10T18:44:09.494Z,37.32
2023-05-10T18:47:12.061Z,37.43
2023-05-10T18:50:14.810Z,37.55
2023-05-10T18:53:17.724Z,37.77
2023-05-10T18:56:20.403Z,38.13
2023-05-10T18:59:23.232Z,38.29
2023-05-10T19:02:26.832Z,38.39
2023-05-10T19:05:31.728Z,38.61
2023-05-10T19:08:34.321Z,38.93
2023-05-10T19:11:36.971Z,39.35
2023-05-10T19:14:39.637Z,39.49
2023-05-10T19:17:44.525Z,39.25
2023-05-10T19:20:47.824Z,39.51
2023-05-10T19:23:50.488Z,39.60
2023-05-10T19:26:53.462Z,39.48
2023-05-10T19:29:57.153Z,39.73
2023-05-10T19:32:59.772Z,39.79
2023-05-10T19:36:02.919Z,40.26
2023-05-10T19:39:05.555Z,39.99
2023-05-10T19:42:08.283Z,40.57
2023-05-10T19:45:12.113Z,40.89
2023-05-10T19:48:14.745Z,41.06
2023-05-10T19:51:17.481Z,40.48
2023-05-10T19:54:27.173Z,41.09
2023-05-10T19:57:29.844Z,41.05
2023-05-10T20:00:32.428Z,41.06
2023-05-10T20:03:35.969Z,41.66
2023-05-10T20:06:39.055Z,41.63
2023-05-10T20:09:44.412Z,42.65
2023-05-10T20:12:51.311Z,42.79
2023-05-10T20:15:58.433Z,42.63
2023-05-10T20:19:01.310Z,42.27
2023-05-10T20:22:05.531Z,42.55
2023-05-10T20:25:09.080Z,43.04
2023-05-10T20:28:13.173Z,43.20
2023-05-10T20:31:15.756Z,43.91
2023-05-10T20:34:24.539Z,43.44
2023-05-10T20:37:28.241Z,43.56
2023-05-10T20:40:31.879Z,43.70
2023-05-10T20:43:34.787Z,44.39
2023-05-10T20:46:37.878Z,44.70
2023-05-10T20:49:46.665Z,44.79
2023-05-10T20:52:52.281Z,45.18
2023-05-10T20:55:54.825Z,44.79
2023-05-10T20:58:57.397Z,44.58
2023-05-10T21:02:01.369Z,44.80
2023-05-10T21:05:04.513Z,44.91
2023-05-10T21:08:29.864Z,44.91
2023-05-10T21:11:35.843Z,44.94
2023-05-10T21:14:38.669Z,45.19
2023-05-10T21:17:41.256Z,46.07
2023-05-10T21:20:44.325Z,45.92
2023-05-10T21:23:47.252Z,46.43
2023-05-10T21:26:49.854Z,46.15
2023-05-10T21:29:53.228Z,46.40
2023-05-10T21:32:59.728Z,46.22
2023-05-10T21:36:02.556Z,46.23
2023-05-10T21:39:07.568Z,46.28
2023-05-10T21:42:10.157Z,46.67
2023-05-10T21:45:13.124Z,46.56
2023-05-10T21:48:15.800Z,46.85
2023-05-10T21:51:18.567Z,47.27
2023-05-10T21:54:27.383Z,46.99
2023-05-10T21:57:30.229Z,46.87
2023-05-10T22:00:34.195Z,47.73
2023-05-10T22:03:37.107Z,47.59
2023-05-10T22:06:39.709Z,47.47
2023-05-10T22:09:43.024Z,47.89
2023-05-10T22:12:45.590Z,47.96
2023-05-10T22:15:48.270Z,48.16
2023-05-10T22:18:51.027Z,47.82
2023-05-10T22:21:54.124Z,48.29
2023-05-10T22:24:56.680Z,48.40
2023-05-10T22:27:59.238Z,48.12
2023-05-10T22:31:01.853Z,48.97
2023-05-10T22:34:04.564Z,48.65
2023-05-10T22:37:07.182Z,48.28
2023-05-10T22:40:10.621Z,48.65
2023-05-10T22:43:13.285Z,48.66
2023-05-10T22:46:15.918Z,48.71
2023-05-10T22:49:18.619Z,48.76
2023-05-10T22:52:21.157Z,49.21
2023-05-10T22:55:23.753Z,49.61
2023-05-10T22:58:26.911Z,49.60
2023-05-10T23:01:29.942Z,49.57
2023-05-10T23:04:32.575Z,49.63
2023-05-10T23:07:35.422Z,49.31
2023-05-10T23:10:38.578Z,49.73
2023-05-10T23:13:41.179Z,49.89
2023-05-10T23:16:43.852Z,50.49
2023-05-10T23:19:46.691Z,50.26
2023-05-10T23:22:49.766Z,50.13
2023-05-10T23:25:52.429Z,50.04
2023-05-10T23:28:54.992Z,51.01
2023-05-10T23:31:57.592Z,50.84
2023-05-10T23:35:00.218Z,50.99
2023-05-10T23:38:03.271Z,51.19
2023-05-10T23:41:06.289Z,51.38
2023-05-10T23:44:08.836Z,51.03
2023-05-10T23:47:11.413Z,51.46
2023-05-10T23:50:14.774Z,51.83
2023-05-10T23:53:17.542Z,52.00
2023-05-10T23:56:20.088Z,52.03
2023-05-10T23:59:22.774Z,52.15
